createdAt,value
2018-12-29T18:06:30.076Z,98531.67
2018-12-29T18:08:58.574Z,98528.20
2018-12-29T18:11:26.789Z,98532.70
2018-12-29T18:13:55.120Z,98534.88
2018-12-29T18:16:23.424Z,98535.09
2018-12-29T18:18:51.729Z,98537.56
2018-12-29T18:21:20.062Z,98536.98
2018-12-29T18:23:48.274Z,98531.97
2018-12-29T18:26:16.775Z,98531.73
2018-12-29T18:28:45.171Z,98532.78
2018-12-29T18:31:13.399Z,98541.35
2018-12-29T18:33:41.593Z,98540.07
2018-12-29T18:36:09.940Z,98538.53
2018-12-29T18:38:38.548Z,98537.48
2018-12-29T18:41:06.860Z,98541.42
2018-12-29T18:43:35.206Z,98532.05
2018-12-29T18:46:03.436Z,98527.61
2018-12-29T18:48:31.661Z,98521.58
2018-12-29T18:51:00.007Z,98521.95
2018-12-29T18:53:28.475Z,98520.09
2018-12-29T18:55:56.674Z,98525.53
2018-12-29T18:58:25.423Z,98531.73
2018-12-29T19:00:53.621Z,98522.41
2018-12-29T19:03:22.172Z,98526.62
2018-12-29T19:05:50.483Z,98524.28
2018-12-29T19:08:18.676Z,98517.42
2018-12-29T19:10:46.895Z,98511.49
2018-12-29T19:13:15.509Z,98512.28
2018-12-29T19:15:44.194Z,98513.92
2018-12-29T19:18:12.527Z,98513.14
2018-12-29T19:20:40.896Z,98515.44
2018-12-29T19:23:10.019Z,98503.62
2018-12-29T19:25:38.236Z,98508.82
2018-12-29T19:28:06.955Z,98508.83
2018-12-29T19:30:35.576Z,98514.66
2018-12-29T19:33:04.405Z,98506.81
2018-12-29T19:35:32.639Z,98512.88
2018-12-29T19:38:00.866Z,98511.86
2018-12-29T19:40:29.481Z,98514.00
2018-12-29T19:42:58.118Z,98516.67
2018-12-29T19:45:26.432Z,98507.44
2018-12-29T19:47:55.158Z,98501.24
2018-12-29T19:50:23.877Z,98500.97
2018-12-29T19:52:52.108Z,98498.16
2018-12-29T19:55:20.431Z,98492.78
2018-12-29T19:57:48.737Z,98493.45
2018-12-29T20:00:17.217Z,98494.27
2018-12-29T20:02:45.933Z,98493.14
2018-12-29T20:05:14.792Z,98498.45
2018-12-29T20:07:43.017Z,98489.34
2018-12-29T20:10:11.324Z,98489.70
2018-12-29T20:12:39.650Z,98486.80
2018-12-29T20:15:07.884Z,98482.88
2018-12-29T20:17:36.427Z,98479.71
2018-12-29T20:20:06.614Z,98473.03
2018-12-29T20:22:34.905Z,98471.45
2018-12-29T20:25:03.169Z,98466.31
2018-12-29T20:27:31.434Z,98468.84
2018-12-29T20:30:00.046Z,98455.70
2018-12-29T20:32:28.575Z,98461.98
2018-12-29T20:34:56.787Z,98456.33
2018-12-29T20:37:25.035Z,98456.61
2018-12-29T20:39:53.259Z,98458.31
2018-12-29T20:42:21.454Z,98460.11
2018-12-29T20:44:49.772Z,98457.84
2018-12-29T20:47:18.001Z,98452.88
2018-12-29T20:49:46.203Z,98456.58
2018-12-29T20:52:14.466Z,98456.06
2018-12-29T20:54:42.753Z,98441.56
2018-12-29T20:57:11.534Z,98435.15
2018-12-29T20:59:39.761Z,98433.96
2018-12-29T21:02:07.959Z,98428.54
2018-12-29T21:04:36.201Z,98418.33
2018-12-29T21:07:04.394Z,98416.91
2018-12-29T21:09:32.864Z,98414.12
2018-12-29T21:12:01.563Z,98414.45
2018-12-29T21:14:29.774Z,98410.44
2018-12-29T21:16:58.180Z,98410.64
2018-12-29T21:19:26.381Z,98409.81
2018-12-29T21:21:54.739Z,98407.09
2018-12-29T21:24:23.032Z,98402.44
2018-12-29T21:26:51.243Z,98396.80
2018-12-29T21:29:19.485Z,98389.91
2018-12-29T21:31:47.683Z,98393.37
2018-12-29T21:34:16.031Z,98398.94
2018-12-29T21:36:44.338Z,98402.80
2018-12-29T21:39:12.702Z,98391.66
2018-12-29T21:41:41.017Z,98383.95
2018-12-29T21:44:09.232Z,98398.69
2018-12-29T21:46:37.453Z,98400.00
2018-12-29T21:49:05.797Z,98392.92
2018-12-29T21:51:34.022Z,98396.97
2018-12-29T21:54:02.763Z,98387.05
2018-12-29T21:56:31.074Z,98379.80
2018-12-29T21:58:59.303Z,98377.59
2018-12-29T22:01:27.623Z,98375.04
2018-12-29T22:03:55.842Z,98381.59
2018-12-29T22:06:24.042Z,98376.82
2018-12-29T22:08:52.474Z,98371.39
2018-12-29T22:11:20.686Z,98359.48
2018-12-29T22:13:48.908Z,98361.09
2018-12-29T22:16:17.120Z,98356.28
2018-12-29T22:18:45.315Z,98355.77
2018-12-29T22:21:13.536Z,98350.73
2018-12-29T22:23:41.746Z,98343.55
2018-12-29T22:26:10.021Z,98354.02
2018-12-29T22:28:38.225Z,98350.41
2018-12-29T22:31:06.439Z,98346.73
2018-12-29T22:33:34.727Z,98326.91
2018-12-29T22:36:03.339Z,98325.02
2018-12-29T22:38:31.656Z,98316.86
2018-12-29T22:40:59.957Z,98318.30
2018-12-29T22:43:28.171Z,98311.72
2018-12-29T22:45:56.377Z,98301.69
2018-12-29T22:48:24.566Z,98295.55
2018-12-29T22:50:52.889Z,98286.98
2018-12-29T22:53:21.119Z,98281.58
2018-12-29T22:55:49.435Z,98271.30
2018-12-29T22:58:17.653Z,98266.91
2018-12-29T23:00:47.440Z,98254.44
2018-12-29T23:03:16.184Z,98252.60
2018-12-29T23:05:44.527Z,98252.41
2018-12-29T23:08:12.719Z,98266.48
2018-12-29T23:10:41.030Z,98268.75
2018-12-29T23:13:09.357Z,98270.03
2018-12-29T23:15:37.680Z,98271.09
2018-12-29T23:18:06.010Z,98277.01
2018-12-29T23:20:34.510Z,98278.22
2018-12-29T23:23:02.732Z,98269.25
2018-12-29T23:25:30.960Z,98264.05
2018-12-29T23:27:59.282Z,98258.20
2018-12-29T23:30:27.511Z,98250.06
2018-12-29T23:32:55.838Z,98247.52
2018-12-29T23:35:24.054Z,98248.20
2018-12-29T23:37:52.294Z,98247.05
2018-12-29T23:40:20.514Z,98244.98
2018-12-29T23:42:48.848Z,98244.53
2018-12-29T23:45:17.059Z,98237.34
2018-12-29T23:47:45.366Z,98231.70
2018-12-29T23:50:14.009Z,98231.64
2018-12-29T23:52:42.610Z,98221.69
2018-12-29T23:55:10.954Z,98221.37
2018-12-29T23:57:39.281Z,98211.17
